Time;durP1;ratioP1;P1;durP2;ratioP2;P2;SDS_P1;SDS_P2;PMS_P1;PMS_P2;Temp;Humidity;BMP_temperature;BMP_pressure;BME280_temperature;BME280_humidity;BME280_pressure;Samples;Min_cycle;Max_cycle;Signal;HPM_P1;HPM_P2
2022/04/27 00:01:17;;;;;;;13.68;8.45;;;;;;;12.71;100.00;99624.81;5113323;28;20039;-73
2022/04/27 00:03:43;;;;;;;13.80;7.65;;;;;;;12.79;100.00;99620.53;5112747;28;20054;-74
2022/04/27 00:06:09;;;;;;;11.70;7.20;;;;;;;12.86;100.00;99625.06;5113028;28;20140;-74
2022/04/27 00:08:35;;;;;;;11.55;7.38;;;;;;;12.82;100.00;99626.38;5106804;28;20024;-74
2022/04/27 00:11:00;;;;;;;11.75;7.10;;;;;;;12.80;100.00;99616.91;5112625;28;20399;-74
2022/04/27 00:13:26;;;;;;;9.52;6.90;;;;;;;12.79;100.00;99625.84;5113042;28;20468;-74
2022/04/27 00:15:51;;;;;;;12.07;7.05;;;;;;;12.72;100.00;99626.47;5112511;28;20039;-74
2022/04/27 00:18:16;;;;;;;11.57;7.40;;;;;;;12.71;100.00;99630.13;5111418;28;20040;-74
2022/04/27 00:20:42;;;;;;;11.25;7.55;;;;;;;12.77;100.00;99627.84;5112550;28;20028;-74
2022/04/27 00:23:08;;;;;;;9.32;7.03;;;;;;;12.77;100.00;99622.53;5112611;28;20476;-74
2022/04/27 00:25:34;;;;;;;12.05;7.32;;;;;;;12.79;100.00;99631.13;5112170;28;20016;-74
2022/04/27 00:27:59;;;;;;;11.70;7.25;;;;;;;12.80;100.00;99619.56;5112464;27;20092;-74
2022/04/27 00:30:25;;;;;;;13.20;7.28;;;;;;;12.83;100.00;99621.91;5112448;28;20376;-74
2022/04/27 00:32:50;;;;;;;10.35;6.82;;;;;;;12.83;100.00;99622.75;5112156;27;20035;-75
2022/04/27 00:35:16;;;;;;;11.07;7.35;;;;;;;12.85;100.00;99619.94;5110802;28;20031;-74
2022/04/27 00:37:41;;;;;;;10.82;7.03;;;;;;;12.84;100.00;99618.28;5111793;28;20027;-74
2022/04/27 00:40:07;;;;;;;11.13;6.80;;;;;;;12.77;100.00;99617.25;5093663;28;20054;-74
2022/04/27 00:42:33;;;;;;;10.65;6.88;;;;;;;12.79;100.00;99612.59;5112224;27;20118;-74
2022/04/27 00:44:58;;;;;;;8.07;7.18;;;;;;;12.81;100.00;99613.28;5111967;28;20039;-74
2022/04/27 00:47:23;;;;;;;10.43;7.20;;;;;;;12.82;100.00;99621.09;5112106;27;20031;-74
2022/04/27 00:49:54;;;;;;;10.63;7.60;;;;;;;12.77;100.00;99622.53;5111748;27;20059;-74
2022/04/27 00:52:20;;;;;;;8.73;7.40;;;;;;;12.79;100.00;99628.50;5110925;28;20032;-74
2022/04/27 00:54:48;;;;;;;9.80;8.10;;;;;;;12.74;100.00;99634.25;5111321;28;20073;-74
2022/04/27 00:57:14;;;;;;;11.95;7.68;;;;;;;12.69;100.00;99626.78;5112078;28;20027;-74
2022/04/27 00:59:41;;;;;;;11.55;9.30;;;;;;;12.64;100.00;99623.78;5107192;28;20031;-75
2022/04/27 01:02:06;;;;;;;11.95;8.23;;;;;;;12.56;100.00;99626.34;5109883;28;20032;-74
2022/04/27 01:04:37;;;;;;;9.63;8.10;;;;;;;12.55;100.00;99627.31;5110823;28;20047;-73
2022/04/27 01:07:03;;;;;;;14.73;9.15;;;;;;;12.44;100.00;99622.28;5110694;28;20119;-74
2022/04/27 01:09:31;;;;;;;9.55;8.60;;;;;;;12.44;100.00;99622.28;5111984;28;20035;-74
2022/04/27 01:11:57;;;;;;;12.57;9.07;;;;;;;12.43;100.00;99631.19;5110040;28;20023;-73
2022/04/27 01:14:24;;;;;;;12.10;8.18;;;;;;;12.43;100.00;99625.91;5110385;28;20492;-73
2022/04/27 01:16:53;;;;;;;10.88;8.02;;;;;;;12.48;100.00;99626.28;5110324;28;20483;-75
2022/04/27 01:19:21;;;;;;;9.55;8.50;;;;;;;12.55;100.00;99623.84;5109576;28;20387;-75
2022/04/27 01:21:48;;;;;;;10.70;8.05;;;;;;;12.58;100.00;99619.09;5111500;28;20043;-75
2022/04/27 01:24:17;;;;;;;9.18;7.72;;;;;;;12.62;100.00;99624.91;5112109;27;20463;-75
2022/04/27 01:26:43;;;;;;;9.40;8.43;;;;;;;12.60;100.00;99633.00;5110161;28;20035;-74
2022/04/27 01:29:08;;;;;;;10.25;8.25;;;;;;;12.45;100.00;99628.41;5110898;28;20072;-75
2022/04/27 01:31:34;;;;;;;10.25;8.95;;;;;;;12.37;100.00;99633.66;5112532;28;20054;-75
2022/04/27 01:33:59;;;;;;;11.00;8.43;;;;;;;12.33;100.00;99635.75;5112567;28;20487;-75
2022/04/27 01:36:25;;;;;;;11.88;9.40;;;;;;;12.32;100.00;99634.06;5110214;28;20026;-74
2022/04/27 01:38:50;;;;;;;11.68;8.70;;;;;;;12.24;100.00;99632.22;5111378;28;20029;-74
2022/04/27 01:41:16;;;;;;;12.35;8.80;;;;;;;12.29;100.00;99639.69;5110777;28;20103;-76
2022/04/27 01:43:42;;;;;;;12.02;9.18;;;;;;;12.29;100.00;99637.03;5110789;28;20024;-76
2022/04/27 01:46:09;;;;;;;9.80;8.52;;;;;;;12.27;100.00;99634.53;5110013;28;20032;-75
2022/04/27 01:48:35;;;;;;;11.65;9.20;;;;;;;12.29;100.00;99634.41;5107176;28;20084;-75
2022/04/27 01:51:00;;;;;;;12.80;9.40;;;;;;;12.23;100.00;99633.19;5109993;28;20027;-75
2022/04/27 01:56:11;;;;;;;10.95;8.65;;;;;;;12.26;100.00;99645.25;5107951;28;20036;-75
2022/04/27 01:58:41;;;;;;;9.63;8.57;;;;;;;12.12;100.00;99635.22;5109271;28;20019;-75
2022/04/27 02:01:11;;;;;;;10.10;8.77;;;;;;;11.98;100.00;99641.03;5109803;28;20042;-76
2022/04/27 02:03:37;;;;;;;10.93;9.40;;;;;;;11.98;100.00;99641.84;5132101;27;20115;-75
2022/04/27 02:06:03;;;;;;;12.32;9.73;;;;;;;11.96;100.00;99643.00;5109630;28;20028;-75
2022/04/27 02:08:29;;;;;;;12.02;9.57;;;;;;;11.94;100.00;99635.22;5110959;28;20050;-74
2022/04/27 02:10:55;;;;;;;12.45;10.02;;;;;;;11.73;100.00;99642.53;5109378;28;20030;-75
2022/04/27 02:13:21;;;;;;;15.68;11.02;;;;;;;11.66;100.00;99647.59;5109441;28;20051;-75
2022/04/27 02:15:46;;;;;;;13.38;9.80;;;;;;;11.56;100.00;99646.78;5109244;28;20116;-75
2022/04/27 02:18:22;;;;;;;14.07;10.80;;;;;;;11.52;100.00;99640.16;5109626;28;20071;-76
2022/04/27 02:20:48;;;;;;;13.80;9.77;;;;;;;11.60;100.00;99642.06;5109343;28;20059;-75
2022/04/27 02:23:13;;;;;;;20.45;10.85;;;;;;;11.51;100.00;99643.75;5109385;28;20118;-75
2022/04/27 02:25:39;;;;;;;10.70;9.27;;;;;;;11.51;100.00;99649.03;5110544;28;20049;-75
2022/04/27 02:28:06;;;;;;;10.35;9.25;;;;;;;11.54;100.00;99651.41;5109607;28;20035;-75
2022/04/27 02:30:32;;;;;;;11.70;9.75;;;;;;;11.61;100.00;99652.47;5108911;28;20019;-76
2022/04/27 02:32:58;;;;;;;11.85;10.07;;;;;;;11.65;100.00;99661.78;5109144;28;20100;-75
2022/04/27 02:35:24;;;;;;;12.60;9.75;;;;;;;11.66;100.00;99658.16;5109273;28;20028;-74
2022/04/27 02:37:49;;;;;;;15.55;9.68;;;;;;;11.64;100.00;99657.47;5110347;28;20076;-75
2022/04/27 02:40:15;;;;;;;13.68;10.00;;;;;;;11.64;100.00;99665.41;5110794;28;20471;-75
2022/04/27 02:42:40;;;;;;;12.93;9.90;;;;;;;11.63;100.00;99663.75;5091655;28;20123;-75
2022/04/27 02:45:06;;;;;;;13.93;9.90;;;;;;;11.62;100.00;99656.78;5109100;28;20111;-76
2022/04/27 02:47:32;;;;;;;14.52;9.77;;;;;;;11.62;100.00;99655.94;5109191;28;20073;-75
2022/04/27 02:52:54;;;;;;;14.00;9.25;;;;;;;11.57;100.00;99656.41;5107038;28;20185;-75
2022/04/27 02:55:26;;;;;;;11.02;9.57;;;;;;;11.50;100.00;99657.94;5109202;28;20028;-75
2022/04/27 02:57:51;;;;;;;11.55;9.60;;;;;;;11.51;100.00;99654.34;5109915;28;20034;-75
2022/04/27 03:00:17;;;;;;;14.40;9.43;;;;;;;11.49;100.00;99659.75;5108759;28;20028;-74
2022/04/27 03:02:42;;;;;;;11.43;9.48;;;;;;;11.46;100.00;99664.50;5108757;28;20032;-75
2022/04/27 03:05:09;;;;;;;13.15;9.52;;;;;;;11.43;100.00;99662.16;5109188;28;20068;-76
2022/04/27 03:07:35;;;;;;;13.82;9.50;;;;;;;11.25;100.00;99670.00;5109041;28;20024;-75
2022/04/27 03:10:01;;;;;;;12.57;9.38;;;;;;;11.20;100.00;99674.06;5109144;28;20028;-75
2022/04/27 03:12:30;;;;;;;10.60;8.77;;;;;;;11.22;100.00;99669.47;5108875;28;20106;-75
2022/04/27 03:14:57;;;;;;;10.52;9.43;;;;;;;11.12;100.00;99673.97;5108590;28;20344;-76
2022/04/27 03:17:23;;;;;;;11.55;10.05;;;;;;;11.17;100.00;99671.72;5108932;28;20502;-75
2022/04/27 03:19:48;;;;;;;12.60;9.82;;;;;;;11.18;100.00;99670.75;5083094;28;20134;-75
2022/04/27 03:22:14;;;;;;;14.38;10.25;;;;;;;11.23;100.00;99677.25;5110292;28;20035;-75
2022/04/27 03:24:39;;;;;;;12.27;10.27;;;;;;;11.05;100.00;99674.53;5108727;28;20471;-75
2022/04/27 03:27:11;;;;;;;12.48;10.25;;;;;;;10.78;100.00;99686.81;5110429;28;20023;-75
2022/04/27 03:29:38;;;;;;;11.48;10.40;;;;;;;10.69;100.00;99688.47;5108852;28;20115;-75
2022/04/27 03:32:04;;;;;;;13.27;10.80;;;;;;;10.70;100.00;99684.88;5108731;28;20119;-75
2022/04/27 03:34:30;;;;;;;13.13;9.90;;;;;;;10.74;100.00;99686.25;5108845;28;20122;-75
2022/04/27 03:36:57;;;;;;;12.57;9.70;;;;;;;10.77;100.00;99696.53;5108449;28;20027;-75
2022/04/27 03:39:22;;;;;;;11.75;10.10;;;;;;;10.77;100.00;99690.41;5108846;28;20089;-75
2022/04/27 03:41:48;;;;;;;16.08;9.65;;;;;;;10.79;100.00;99699.84;5108502;28;20059;-75
2022/04/27 03:44:14;;;;;;;12.45;10.07;;;;;;;10.83;100.00;99690.69;5094893;28;20126;-75
2022/04/27 03:46:39;;;;;;;13.57;10.15;;;;;;;10.89;100.00;99698.06;5111855;28;20024;-75
2022/04/27 03:49:04;;;;;;;12.30;10.35;;;;;;;10.91;100.00;99698.72;5108204;28;20036;-76
2022/04/27 03:51:31;;;;;;;11.38;9.77;;;;;;;10.96;100.00;99701.75;5112315;28;20038;-75
2022/04/27 03:53:57;;;;;;;10.90;9.82;;;;;;;11.01;100.00;99693.44;5112000;28;20036;-75
2022/04/27 03:56:22;;;;;;;10.40;9.38;;;;;;;11.06;100.00;99699.13;5112496;28;20096;-76
2022/04/27 03:58:48;;;;;;;10.82;9.25;;;;;;;11.13;100.00;99702.03;5111557;28;20039;-76
2022/04/27 04:01:14;;;;;;;16.50;9.82;;;;;;;11.17;100.00;99703.41;5112029;28;20544;-75
2022/04/27 04:03:39;;;;;;;11.35;9.48;;;;;;;11.21;100.00;99697.69;5111705;28;20036;-75
2022/04/27 04:06:06;;;;;;;12.55;9.15;;;;;;;11.18;100.00;99695.34;5108079;28;20039;-76
2022/04/27 04:08:41;;;;;;;14.00;10.43;;;;;;;11.23;100.00;99694.91;5108560;28;20114;-76
2022/04/27 04:11:07;;;;;;;11.55;9.77;;;;;;;11.22;100.00;99695.88;5112096;28;20150;-75
2022/04/27 04:13:50;;;;;;;11.75;9.13;;;;;;;11.24;100.00;99699.22;5110812;28;20039;-76
2022/04/27 04:16:21;;;;;;;;;;;;;;;11.21;100.00;99700.31;5113933;28;20035;-75
2022/04/27 04:19:12;;;;;;;10.48;9.43;;;;;;;11.27;100.00;99709.50;5111448;28;20291;-76
2022/04/27 04:21:59;;;;;;;16.63;10.15;;;;;;;11.09;100.00;99719.97;5111594;28;20031;-75
2022/04/27 04:28:29;;;;;;;10.55;9.52;;;;;;;11.00;100.00;99713.72;5109803;28;20043;-74
2022/04/27 04:30:14;;;;;;;12.68;10.57;;;;;;;10.64;100.00;99739.03;5108769;28;20038;-75
2022/04/27 04:32:43;;;;;;;13.30;9.80;;;;;;;10.60;100.00;99744.75;5111183;28;20034;-75
2022/04/27 04:35:33;;;;;;;16.75;10.20;;;;;;;10.59;100.00;99749.19;5111518;28;20084;-75
2022/04/27 04:37:59;;;;;;;11.05;9.48;;;;;;;10.62;100.00;99748.06;5111348;28;20027;-75
2022/04/27 04:40:26;;;;;;;11.45;10.18;;;;;;;10.56;100.00;99757.34;5111372;28;20032;-74
2022/04/27 04:42:52;;;;;;;12.82;10.55;;;;;;;10.58;100.00;99762.50;5111052;28;20019;-75
2022/04/27 04:45:18;;;;;;;12.20;10.57;;;;;;;10.37;100.00;99761.81;5111259;28;20034;-74
2022/04/27 04:48:14;;;;;;;14.32;9.93;;;;;;;10.34;100.00;99756.78;5095805;28;20508;-74
2022/04/27 04:50:42;;;;;;;16.08;10.55;;;;;;;10.46;100.00;99758.31;5112237;28;20040;-74
2022/04/27 04:53:32;;;;;;;18.75;10.40;;;;;;;10.55;100.00;99757.50;5110154;28;20105;-75
2022/04/27 04:56:21;;;;;;;12.73;11.32;;;;;;;10.64;100.00;99764.59;5110098;28;20039;-75
2022/04/27 04:58:52;;;;;;;15.60;11.07;;;;;;;10.72;100.00;99762.09;5111820;28;20039;-74
2022/04/27 05:01:44;;;;;;;15.32;10.73;;;;;;;10.81;100.00;99761.25;5107799;28;20046;-74
2022/04/27 05:04:26;;;;;;;15.15;12.68;;;;;;;10.87;100.00;99771.28;5110558;28;20110;-74
2022/04/27 05:07:14;;;;;;;24.20;12.40;;;;;;;10.93;100.00;99770.72;5107702;28;20357;-74
2022/04/27 05:09:57;;;;;;;15.95;12.15;;;;;;;10.95;100.00;99763.50;5110293;28;20110;-74
2022/04/27 05:12:51;;;;;;;16.67;11.50;;;;;;;11.07;100.00;99778.19;5095807;28;20048;-76
2022/04/27 05:15:43;;;;;;;14.02;11.57;;;;;;;10.89;100.00;99779.91;5102717;28;20043;-74
2022/04/27 05:18:37;;;;;;;13.40;10.65;;;;;;;10.71;100.00;99784.19;5104628;27;20046;-76
2022/04/27 05:21:21;;;;;;;16.08;10.63;;;;;;;10.73;100.00;99782.22;5109150;28;20046;-72
2022/04/27 05:23:57;;;;;;;13.93;11.00;;;;;;;10.77;100.00;99783.63;5109986;28;20054;-73
2022/04/27 05:26:37;;;;;;;12.55;9.80;;;;;;;10.83;100.00;99791.00;5107698;28;20035;-73
2022/04/27 05:32:17;;;;;;;14.55;10.60;;;;;;;10.97;100.00;99797.66;4755314;27;9999926;-72
2022/04/27 05:35:12;;;;;;;17.38;10.45;;;;;;;10.99;100.00;99807.13;5038566;28;20113;-73
2022/04/27 05:38:05;;;;;;;14.00;9.98;;;;;;;11.12;100.00;99798.09;5103123;28;20073;-73
2022/04/27 05:40:49;;;;;;;11.65;10.18;;;;;;;11.14;100.00;99798.75;5106070;28;20101;-72
2022/04/27 05:43:33;;;;;;;13.63;10.40;;;;;;;11.24;100.00;99799.59;5108301;28;20050;-72
2022/04/27 05:46:26;;;;;;;16.92;10.95;;;;;;;11.22;100.00;99801.53;5104407;28;20088;-72
2022/04/27 05:49:13;;;;;;;14.15;10.70;;;;;;;11.35;100.00;99804.72;5107173;28;20041;-70
2022/04/27 05:51:54;;;;;;;15.60;11.10;;;;;;;11.49;100.00;99809.56;5105799;28;20043;-72
2022/04/27 05:54:24;;;;;;;;;;;;;;;11.62;100.00;99812.72;5107766;28;20042;-72
2022/04/27 05:56:52;;;;;;;15.95;11.23;;;;;;;11.80;100.00;99813.69;5108494;28;19920;-74
2022/04/27 05:59:53;;;;;;;14.30;10.52;;;;;;;11.99;100.00;99822.53;5034123;28;20037;-73
2022/04/27 06:02:39;;;;;;;12.32;10.02;;;;;;;12.16;100.00;99808.53;5093440;28;20104;-73
2022/04/27 06:05:06;;;;;;;18.92;10.75;;;;;;;12.30;100.00;99811.53;5108086;28;20035;-72
2022/04/27 06:07:34;;;;;;;12.20;10.35;;;;;;;12.36;100.00;99810.09;5109375;28;20039;-73
2022/04/27 06:10:01;;;;;;;14.95;10.43;;;;;;;12.37;100.00;99814.41;5109290;28;20035;-73
2022/04/27 06:12:46;;;;;;;14.90;10.48;;;;;;;12.53;100.00;99817.25;5108302;28;20027;-73
2022/04/27 06:15:41;;;;;;;14.05;10.43;;;;;;;12.76;100.00;99814.16;5097451;28;20039;-73
2022/04/27 06:18:18;;;;;;;11.63;9.43;;;;;;;12.96;100.00;99824.44;5108944;28;20047;-73
2022/04/27 06:20:44;;;;;;;16.02;11.23;;;;;;;13.16;100.00;99819.88;5107889;28;20039;-73
2022/04/27 06:23:10;;;;;;;13.00;10.63;;;;;;;13.27;100.00;99827.56;5108874;28;20024;-73
2022/04/27 06:25:39;;;;;;;11.93;9.95;;;;;;;13.46;100.00;99827.41;5109969;28;20031;-73
2022/04/27 06:28:09;;;;;;;14.85;10.70;;;;;;;13.58;100.00;99829.81;5104556;28;20031;-73
2022/04/27 06:30:35;;;;;;;14.27;10.15;;;;;;;13.69;100.00;99832.19;5108912;28;20043;-72
2022/04/27 06:33:02;;;;;;;12.73;10.23;;;;;;;13.76;100.00;99827.94;5109076;28;20024;-72
2022/04/27 06:35:28;;;;;;;13.30;10.52;;;;;;;13.76;100.00;99839.38;5108954;28;20035;-72
2022/04/27 06:37:58;;;;;;;15.63;10.38;;;;;;;13.71;100.00;99840.84;5108758;28;20407;-72
2022/04/27 06:40:25;;;;;;;13.07;10.85;;;;;;;13.49;100.00;99835.03;5108667;28;20126;-72
2022/04/27 06:42:52;;;;;;;15.35;11.25;;;;;;;13.52;100.00;99842.69;5108299;28;20027;-74
2022/04/27 06:45:56;;;;;;;16.92;11.48;;;;;;;13.45;100.00;99841.63;5066887;28;20401;-74
2022/04/27 06:48:56;;;;;;;;;;;;;;;13.47;100.00;99839.69;5066283;28;20528;-73
2022/04/27 06:51:48;;;;;;;15.07;11.45;;;;;;;13.44;100.00;99850.56;5066904;28;19962;-73
2022/04/27 06:54:49;;;;;;;14.52;10.57;;;;;;;13.31;100.00;99839.53;5064325;28;20041;-74
2022/04/27 06:57:33;;;;;;;14.45;10.65;;;;;;;13.27;100.00;99850.59;5067157;28;20102;-73
2022/04/27 07:00:03;;;;;;;12.35;10.93;;;;;;;13.36;100.00;99853.19;5050403;28;20033;-71
2022/04/27 07:02:30;;;;;;;17.27;11.73;;;;;;;13.57;100.00;99854.66;5067194;28;20040;-73
2022/04/27 07:05:00;;;;;;;13.65;10.48;;;;;;;13.71;100.00;99859.41;5066336;28;20462;-72
2022/04/27 07:07:26;;;;;;;12.45;10.77;;;;;;;13.87;100.00;99862.16;5065878;28;20173;-73
2022/04/27 07:09:52;;;;;;;15.40;9.40;;;;;;;14.03;100.00;99856.94;5065634;28;20051;-72
2022/04/27 07:12:18;;;;;;;13.43;10.68;;;;;;;14.09;100.00;99866.91;5066752;28;20052;-72
2022/04/27 07:14:43;;;;;;;15.50;11.25;;;;;;;14.17;100.00;99855.53;5066767;28;20432;-73
2022/04/27 07:17:09;;;;;;;21.48;12.75;;;;;;;14.27;100.00;99861.53;5095043;28;20043;-72
2022/04/27 07:19:34;;;;;;;14.63;11.70;;;;;;;14.34;100.00;99860.75;5113573;28;20040;-73
2022/04/27 07:22:02;;;;;;;20.45;11.98;;;;;;;14.43;100.00;99868.78;5114326;28;20036;-70
2022/04/27 07:24:28;;;;;;;13.52;11.18;;;;;;;14.54;100.00;99871.16;5111895;28;20416;-71
2022/04/27 07:26:53;;;;;;;16.27;11.70;;;;;;;14.65;100.00;99868.22;5111667;28;20038;-71
2022/04/27 07:29:19;;;;;;;13.40;10.82;;;;;;;14.81;100.00;99868.25;5113376;28;20114;-71
2022/04/27 07:31:45;;;;;;;13.63;11.20;;;;;;;14.92;100.00;99875.91;5112663;28;21484;-76
2022/04/27 07:34:11;;;;;;;16.42;11.77;;;;;;;14.97;100.00;99873.59;5110101;28;20024;-75
2022/04/27 07:36:36;;;;;;;15.18;11.82;;;;;;;15.04;100.00;99879.91;5113058;28;20102;-74
2022/04/27 07:39:03;;;;;;;58.28;13.13;;;;;;;15.07;100.00;99873.47;5113411;28;20110;-68
2022/04/27 07:41:29;;;;;;;12.98;10.60;;;;;;;15.22;100.00;99881.59;5113308;28;20043;-71
2022/04/27 07:43:54;;;;;;;19.73;11.63;;;;;;;15.37;100.00;99885.28;5112822;28;20024;-68
2022/04/27 07:46:19;;;;;;;14.00;10.13;;;;;;;15.50;100.00;99881.13;5113132;28;20031;-70
2022/04/27 07:48:45;;;;;;;11.90;10.25;;;;;;;15.59;100.00;99881.16;5112768;28;20024;-68
2022/04/27 07:51:10;;;;;;;11.77;9.18;;;;;;;15.67;100.00;99881.97;5112942;28;20364;-68
2022/04/27 07:53:36;;;;;;;11.60;9.25;;;;;;;15.73;100.00;99875.16;5112467;28;20034;-68
2022/04/27 07:56:01;;;;;;;13.32;8.13;;;;;;;15.74;100.00;99882.97;5113072;28;20020;-68
2022/04/27 07:58:27;;;;;;;11.13;8.13;;;;;;;15.74;100.00;99888.28;5111506;28;20061;-67
2022/04/27 08:00:52;;;;;;;13.88;8.43;;;;;;;15.69;100.00;99882.66;5112647;28;20046;-67
2022/04/27 08:03:18;;;;;;;11.02;8.60;;;;;;;15.66;100.00;99893.63;5112940;28;20031;-67
2022/04/27 08:05:43;;;;;;;11.18;9.15;;;;;;;15.65;100.00;99889.31;5112445;28;20609;-70
2022/04/27 08:08:09;;;;;;;11.43;9.15;;;;;;;15.61;100.00;99893.28;5109704;28;20492;-70
2022/04/27 08:10:35;;;;;;;11.93;8.48;;;;;;;15.64;100.00;99898.28;5112238;28;20059;-70
2022/04/27 08:13:00;;;;;;;12.15;8.70;;;;;;;15.73;100.00;99897.28;5112225;28;20063;-70
2022/04/27 08:15:26;;;;;;;14.15;8.98;;;;;;;15.89;100.00;99899.09;5112580;28;20092;-71
2022/04/27 08:17:54;;;;;;;16.45;9.60;;;;;;;15.97;100.00;99899.91;5112005;28;20044;-70
2022/04/27 08:23:07;;;;;;;14.40;8.93;;;;;;;16.06;100.00;99902.56;5112903;28;20480;-72
2022/04/27 08:25:34;;;;;;;11.55;9.20;;;;;;;15.98;100.00;99906.91;5112417;28;20042;-76
2022/04/27 08:27:59;;;;;;;9.73;8.80;;;;;;;16.15;100.00;99905.03;5108613;28;20028;-80
2022/04/27 08:30:25;;;;;;;12.15;8.55;;;;;;;16.21;100.00;99908.84;5112340;28;20031;-81
2022/04/27 08:32:52;;;;;;;13.73;8.57;;;;;;;16.30;100.00;99913.16;5112122;28;20038;-80
2022/04/27 08:35:17;;;;;;;11.63;7.40;;;;;;;16.39;100.00;99915.63;5111132;28;20032;-81
2022/04/27 08:37:43;;;;;;;10.13;6.50;;;;;;;16.53;99.46;99911.41;5111033;28;20059;-81
2022/04/27 08:40:09;;;;;;;13.80;6.60;;;;;;;16.74;98.40;99919.69;5112587;28;20031;-75
2022/04/27 08:42:34;;;;;;;20.17;7.82;;;;;;;16.89;97.99;99916.28;5111853;28;20032;-72
2022/04/27 08:45:00;;;;;;;8.77;7.13;;;;;;;17.12;97.11;99917.16;5112114;28;20149;-74
2022/04/27 08:47:27;;;;;;;9.43;7.32;;;;;;;17.32;95.99;99918.34;5112044;28;20031;-74
2022/04/27 08:49:53;;;;;;;9.82;7.22;;;;;;;17.42;94.44;99918.97;5111707;28;20445;-75
2022/04/27 08:52:21;;;;;;;8.25;7.00;;;;;;;17.66;93.71;99922.50;5112342;28;20019;-77
2022/04/27 08:54:48;;;;;;;10.80;7.50;;;;;;;17.89;92.24;99923.28;5111787;28;20031;-77
2022/04/27 08:57:14;;;;;;;10.93;8.85;;;;;;;18.00;90.09;99922.84;5110997;28;20399;-78
2022/04/27 08:59:39;;;;;;;10.60;8.20;;;;;;;17.99;90.58;99918.50;5110493;28;20030;-77
2022/04/27 09:02:27;;;;;;;13.68;8.15;;;;;;;17.84;90.38;99917.66;5110069;28;20027;-74
2022/04/27 09:05:07;;;;;;;9.65;7.28;;;;;;;17.86;90.44;99920.97;5108651;28;20047;-75
2022/04/27 09:07:37;;;;;;;11.07;8.27;;;;;;;18.03;90.25;99922.47;5111205;28;20036;-75
2022/04/27 09:10:04;;;;;;;11.07;7.85;;;;;;;18.01;90.89;99919.16;5111741;28;20095;-77
2022/04/27 09:12:29;;;;;;;11.07;7.40;;;;;;;18.07;90.97;99923.78;5110881;28;20122;-75
2022/04/27 09:15:08;;;;;;;11.43;8.05;;;;;;;17.98;90.84;99919.50;5110397;28;20034;-75
2022/04/27 09:23:04;;;;;;;9.05;6.30;;;;;;;17.55;90.98;99926.38;5111539;28;20043;-73
2022/04/27 09:25:32;;;;;;;7.95;6.88;;;;;;;17.61;90.74;99917.69;5111826;28;20024;-76
2022/04/27 09:27:59;;;;;;;8.50;7.13;;;;;;;17.65;89.90;99915.47;5110916;28;20395;-74
2022/04/27 09:30:27;;;;;;;9.27;6.05;;;;;;;17.83;90.75;99913.31;5109712;28;20542;-73
2022/04/27 09:32:52;;;;;;;11.90;7.10;;;;;;;17.98;90.15;99909.66;5109324;28;20059;-73
2022/04/27 09:35:39;;;;;;;8.18;6.80;;;;;;;18.13;89.10;99923.06;5109004;28;20054;-82
2022/04/27 09:38:12;;;;;;;10.60;6.70;;;;;;;18.15;87.36;99915.66;5110533;28;20066;-79
2022/04/27 09:40:48;;;;;;;11.40;6.38;;;;;;;18.13;87.71;99917.72;5107017;28;20093;-76
2022/04/27 09:43:15;;;;;;;7.00;6.30;;;;;;;18.18;87.64;99923.34;5105830;28;20059;-78
2022/04/27 09:45:44;;;;;;;9.23;5.97;;;;;;;18.21;86.63;99922.13;5108671;28;20096;-79
2022/04/27 09:48:18;;;;;;;11.75;6.50;;;;;;;18.29;86.42;99922.88;5110718;28;20023;-78
2022/04/27 09:51:01;;;;;;;7.20;5.78;;;;;;;18.34;84.15;99923.16;5107986;28;20125;-78
2022/04/27 09:53:26;;;;;;;10.05;6.68;;;;;;;18.43;83.97;99923.91;5109368;28;20028;-79
2022/04/27 09:55:55;;;;;;;8.85;6.38;;;;;;;18.42;83.26;99916.91;5109591;28;20076;-75
2022/04/27 09:58:26;;;;;;;9.68;5.95;;;;;;;18.52;83.17;99919.28;5110003;28;20070;-77
2022/04/27 10:01:02;;;;;;;7.78;6.07;;;;;;;18.54;82.83;99917.25;4755301;27;10000166;-80
2022/04/27 10:03:28;;;;;;;6.75;5.55;;;;;;;18.61;82.43;99910.19;5111988;27;20521;-75
2022/04/27 10:05:54;;;;;;;7.65;5.88;;;;;;;18.71;81.32;99911.56;5106135;28;20035;-76
2022/04/27 10:08:20;;;;;;;7.32;5.35;;;;;;;18.77;78.76;99910.00;5106380;28;20039;-77
2022/04/27 10:10:47;;;;;;;7.75;4.95;;;;;;;18.83;78.13;99913.75;5105104;28;20035;-75
2022/04/27 10:13:14;;;;;;;5.13;4.63;;;;;;;18.90;76.32;99915.50;5107924;28;20047;-76
2022/04/27 10:15:42;;;;;;;10.25;6.05;;;;;;;18.87;75.53;99910.53;5107551;28;20035;-74
2022/04/27 10:18:14;;;;;;;10.98;5.25;;;;;;;18.75;75.63;99912.00;5128807;27;20040;-77
2022/04/27 10:20:39;;;;;;;10.13;5.55;;;;;;;18.66;77.02;99902.44;5107684;28;20445;-75
2022/04/27 10:23:19;;;;;;;6.07;4.75;;;;;;;18.70;77.37;99901.06;4399705;27;10021527;-76
2022/04/27 10:26:11;;;;;;;7.22;4.63;;;;;;;18.74;77.97;99895.13;5107034;28;20028;-79
2022/04/27 10:28:46;;;;;;;6.78;4.78;;;;;;;18.91;76.63;99901.09;5105621;28;20031;-77
2022/04/27 10:31:11;;;;;;;5.78;5.05;;;;;;;18.84;74.64;99905.56;5105386;28;20541;-76
2022/04/27 10:33:40;;;;;;;7.93;6.28;;;;;;;19.01;74.71;99903.50;5110106;28;20023;-75
2022/04/27 10:36:28;;;;;;;8.20;5.88;;;;;;;19.17;73.18;99896.06;5110164;28;20023;-78
2022/04/27 10:39:11;;;;;;;8.68;5.25;;;;;;;19.20;72.92;99890.31;5108540;28;20086;-78
2022/04/27 10:41:42;;;;;;;7.72;4.47;;;;;;;19.42;72.91;99893.84;5110010;28;20039;-76
2022/04/27 10:44:07;;;;;;;6.95;4.53;;;;;;;19.66;73.56;99895.31;5109775;28;20036;-75
2022/04/27 10:46:38;;;;;;;6.80;4.18;;;;;;;19.76;72.47;99885.09;5109993;28;20039;-75
2022/04/27 10:49:23;;;;;;;7.03;5.20;;;;;;;19.66;74.51;99883.78;5109671;28;20075;-76
2022/04/27 10:52:09;;;;;;;8.57;5.20;;;;;;;19.42;74.31;99887.66;5108304;28;20032;-76
2022/04/27 10:54:37;;;;;;;5.63;4.43;;;;;;;19.49;74.36;99888.59;5113842;28;20036;-75
2022/04/27 10:57:15;;;;;;;7.53;4.40;;;;;;;19.64;72.95;99881.28;5139888;27;20225;-77
2022/04/27 10:59:44;;;;;;;6.65;4.50;;;;;;;20.09;70.50;99879.97;5112584;28;20040;-75
2022/04/27 11:02:34;;;;;;;6.38;5.32;;;;;;;20.42;70.31;99882.91;5110435;28;20054;-79
2022/04/27 11:05:20;;;;;;;5.85;4.03;;;;;;;20.36;66.98;99881.00;5112426;28;20116;-78
2022/04/27 11:07:58;;;;;;;6.38;3.55;;;;;;;20.34;67.51;99883.06;5110541;28;20115;-78
2022/04/27 11:10:25;;;;;;;4.43;3.13;;;;;;;20.38;68.09;99885.13;5112550;28;20476;-75
2022/04/27 11:12:52;;;;;;;6.90;3.83;;;;;;;20.42;68.80;99885.59;5110910;28;20051;-77
2022/04/27 11:15:22;;;;;;;5.70;4.05;;;;;;;20.34;70.69;99880.38;5112262;28;20034;-76
2022/04/27 11:17:56;;;;;;;5.63;3.90;;;;;;;20.11;72.33;99883.28;5110495;28;20084;-76
2022/04/27 11:20:22;;;;;;;5.32;3.72;;;;;;;20.36;72.60;99881.00;5113368;28;20439;-77
2022/04/27 11:22:48;;;;;;;6.07;4.07;;;;;;;20.47;71.27;99877.75;5112974;28;20074;-76
2022/04/27 11:25:22;;;;;;;5.60;4.05;;;;;;;20.45;69.96;99879.81;5113263;28;20102;-76
2022/04/27 11:27:48;;;;;;;4.13;3.38;;;;;;;20.44;70.38;99870.94;5112116;28;20120;-76
2022/04/27 11:30:15;;;;;;;5.57;3.60;;;;;;;20.26;70.13;99875.16;5113433;28;20038;-77
2022/04/27 11:32:44;;;;;;;5.03;3.92;;;;;;;20.14;69.72;99871.38;5113307;28;20019;-77
2022/04/27 11:35:10;;;;;;;4.57;3.75;;;;;;;20.16;69.42;99870.13;5109534;28;20026;-77
2022/04/27 11:37:37;;;;;;;5.70;3.60;;;;;;;20.21;69.02;99874.91;5112746;28;20106;-78
2022/04/27 11:40:14;;;;;;;5.20;3.45;;;;;;;20.40;68.18;99868.84;5112717;28;20472;-78
2022/04/27 11:42:48;;;;;;;4.13;3.50;;;;;;;20.78;67.81;99864.72;5109006;28;20070;-77
2022/04/27 11:45:18;;;;;;;5.38;4.15;;;;;;;20.91;65.76;99873.84;5109670;28;20433;-76
2022/04/27 11:47:44;;;;;;;;;;;;;;;21.09;64.65;99871.38;5113037;28;20035;-76
2022/04/27 11:50:09;;;;;;;6.28;3.40;;;;;;;20.89;62.58;99873.19;5110105;27;19926;-76
2022/04/27 11:52:39;;;;;;;5.68;3.05;;;;;;;20.96;63.48;99871.38;5109045;28;20067;-82
2022/04/27 11:55:12;;;;;;;4.93;3.20;;;;;;;20.91;62.13;99868.47;5110193;28;20039;-80